sensor_id;sensor_type;location;lat;lon;timestamp;P1;durP1;ratioP1;P2;durP2;ratioP2
21251;SDS011;10784;50.578;17.878;2023-12-20T00:01:35;18.15;;;6.03;;
21251;SDS011;10784;50.578;17.878;2023-12-20T00:04:08;11.77;;;5.97;;
21251;SDS011;10784;50.578;17.878;2023-12-20T00:06:41;17.65;;;7.07;;
21251;SDS011;10784;50.578;17.878;2023-12-20T00:09:14;17.95;;;6.88;;
21251;SDS011;10784;50.578;17.878;2023-12-20T00:11:47;13.65;;;6.57;;
21251;SDS011;10784;50.578;17.878;2023-12-20T00:14:20;12.55;;;5.15;;
21251;SDS011;10784;50.578;17.878;2023-12-20T00:16:53;9.45;;;5.32;;
21251;SDS011;10784;50.578;17.878;2023-12-20T00:19:25;14.68;;;6.38;;
21251;SDS011;10784;50.578;17.878;2023-12-20T00:21:59;18.42;;;5.95;;
21251;SDS011;10784;50.578;17.878;2023-12-20T00:24:32;22.90;;;8.05;;
21251;SDS011;10784;50.578;17.878;2023-12-20T00:27:05;14.63;;;6.63;;
21251;SDS011;10784;50.578;17.878;2023-12-20T00:29:38;20.75;;;6.18;;
21251;SDS011;10784;50.578;17.878;2023-12-20T00:32:11;15.88;;;7.10;;
21251;SDS011;10784;50.578;17.878;2023-12-20T00:34:44;17.67;;;6.25;;
21251;SDS011;10784;50.578;17.878;2023-12-20T00:37:17;13.90;;;6.53;;
21251;SDS011;10784;50.578;17.878;2023-12-20T00:39:50;19.90;;;7.80;;
21251;SDS011;10784;50.578;17.878;2023-12-20T00:42:23;19.58;;;7.13;;
21251;SDS011;10784;50.578;17.878;2023-12-20T00:44:56;19.10;;;7.70;;
21251;SDS011;10784;50.578;17.878;2023-12-20T00:47:28;17.60;;;7.18;;
21251;SDS011;10784;50.578;17.878;2023-12-20T00:50:01;22.20;;;6.70;;
21251;SDS011;10784;50.578;17.878;2023-12-20T00:52:35;18.90;;;8.65;;
21251;SDS011;10784;50.578;17.878;2023-12-20T00:55:07;19.80;;;8.30;;
21251;SDS011;10784;50.578;17.878;2023-12-20T00:57:40;17.17;;;7.78;;
21251;SDS011;10784;50.578;17.878;2023-12-20T01:00:14;13.57;;;6.38;;
21251;SDS011;10784;50.578;17.878;2023-12-20T01:02:47;17.10;;;7.45;;
21251;SDS011;10784;50.578;17.878;2023-12-20T01:05:23;21.52;;;9.95;;
21251;SDS011;10784;50.578;17.878;2023-12-20T01:07:57;20.80;;;9.63;;
21251;SDS011;10784;50.578;17.878;2023-12-20T01:10:29;21.42;;;9.35;;
21251;SDS011;10784;50.578;17.878;2023-12-20T01:13:03;26.92;;;10.32;;
21251;SDS011;10784;50.578;17.878;2023-12-20T01:15:35;25.33;;;10.18;;
21251;SDS011;10784;50.578;17.878;2023-12-20T01:18:08;27.00;;;10.25;;
21251;SDS011;10784;50.578;17.878;2023-12-20T01:20:41;22.33;;;11.32;;
21251;SDS011;10784;50.578;17.878;2023-12-20T01:23:15;22.77;;;12.40;;
21251;SDS011;10784;50.578;17.878;2023-12-20T01:25:48;24.88;;;11.25;;
21251;SDS011;10784;50.578;17.878;2023-12-20T01:28:21;22.15;;;9.88;;
21251;SDS011;10784;50.578;17.878;2023-12-20T01:30:54;19.58;;;9.65;;
21251;SDS011;10784;50.578;17.878;2023-12-20T01:33:27;34.55;;;11.32;;
21251;SDS011;10784;50.578;17.878;2023-12-20T01:36:00;21.65;;;9.82;;
21251;SDS011;10784;50.578;17.878;2023-12-20T01:38:33;16.48;;;5.97;;
21251;SDS011;10784;50.578;17.878;2023-12-20T01:41:06;15.30;;;6.40;;
21251;SDS011;10784;50.578;17.878;2023-12-20T01:43:39;14.98;;;6.25;;
21251;SDS011;10784;50.578;17.878;2023-12-20T01:46:22;12.95;;;5.88;;
21251;SDS011;10784;50.578;17.878;2023-12-20T01:48:55;11.32;;;5.28;;
21251;SDS011;10784;50.578;17.878;2023-12-20T01:51:28;9.00;;;3.13;;
21251;SDS011;10784;50.578;17.878;2023-12-20T01:54:01;5.93;;;3.58;;
21251;SDS011;10784;50.578;17.878;2023-12-20T01:56:34;9.93;;;3.75;;
21251;SDS011;10784;50.578;17.878;2023-12-20T01:59:07;4.10;;;2.03;;
21251;SDS011;10784;50.578;17.878;2023-12-20T02:01:40;9.57;;;2.72;;
21251;SDS011;10784;50.578;17.878;2023-12-20T02:04:13;4.05;;;1.98;;
21251;SDS011;10784;50.578;17.878;2023-12-20T02:06:46;4.05;;;1.70;;
21251;SDS011;10784;50.578;17.878;2023-12-20T02:09:19;7.97;;;2.65;;
21251;SDS011;10784;50.578;17.878;2023-12-20T02:11:52;5.70;;;2.00;;
21251;SDS011;10784;50.578;17.878;2023-12-20T02:14:25;9.82;;;3.35;;
21251;SDS011;10784;50.578;17.878;2023-12-20T02:16:58;2.53;;;2.33;;
21251;SDS011;10784;50.578;17.878;2023-12-20T02:19:31;7.35;;;2.72;;
21251;SDS011;10784;50.578;17.878;2023-12-20T02:22:05;2.58;;;1.92;;
21251;SDS011;10784;50.578;17.878;2023-12-20T02:24:38;2.85;;;2.20;;
21251;SDS011;10784;50.578;17.878;2023-12-20T02:27:11;4.45;;;1.73;;
21251;SDS011;10784;50.578;17.878;2023-12-20T02:29:46;3.60;;;1.92;;
21251;SDS011;10784;50.578;17.878;2023-12-20T02:32:19;3.17;;;2.55;;
21251;SDS011;10784;50.578;17.878;2023-12-20T02:34:53;5.63;;;2.75;;
21251;SDS011;10784;50.578;17.878;2023-12-20T02:37:26;4.47;;;2.42;;
21251;SDS011;10784;50.578;17.878;2023-12-20T02:39:59;4.80;;;2.08;;
21251;SDS011;10784;50.578;17.878;2023-12-20T02:42:32;8.15;;;2.33;;
21251;SDS011;10784;50.578;17.878;2023-12-20T02:45:05;7.38;;;2.85;;
21251;SDS011;10784;50.578;17.878;2023-12-20T02:47:38;2.13;;;1.70;;
21251;SDS011;10784;50.578;17.878;2023-12-20T02:50:11;2.58;;;1.80;;
21251;SDS011;10784;50.578;17.878;2023-12-20T02:52:44;5.28;;;2.70;;
21251;SDS011;10784;50.578;17.878;2023-12-20T02:55:17;3.10;;;2.00;;
21251;SDS011;10784;50.578;17.878;2023-12-20T02:57:50;2.70;;;2.00;;
21251;SDS011;10784;50.578;17.878;2023-12-20T03:00:23;3.75;;;2.00;;
21251;SDS011;10784;50.578;17.878;2023-12-20T03:02:56;5.00;;;2.47;;
21251;SDS011;10784;50.578;17.878;2023-12-20T03:05:29;5.00;;;2.03;;
21251;SDS011;10784;50.578;17.878;2023-12-20T03:08:02;4.53;;;2.30;;
21251;SDS011;10784;50.578;17.878;2023-12-20T03:10:35;6.22;;;2.65;;
21251;SDS011;10784;50.578;17.878;2023-12-20T03:13:08;8.50;;;2.38;;
21251;SDS011;10784;50.578;17.878;2023-12-20T03:15:41;4.55;;;2.35;;
21251;SDS011;10784;50.578;17.878;2023-12-20T03:18:14;13.25;;;4.57;;
21251;SDS011;10784;50.578;17.878;2023-12-20T03:20:47;6.75;;;3.55;;
21251;SDS011;10784;50.578;17.878;2023-12-20T03:23:22;6.00;;;3.97;;
21251;SDS011;10784;50.578;17.878;2023-12-20T03:25:55;9.50;;;4.25;;
21251;SDS011;10784;50.578;17.878;2023-12-20T03:28:29;13.57;;;6.82;;
21251;SDS011;10784;50.578;17.878;2023-12-20T03:31:02;25.10;;;11.40;;
21251;SDS011;10784;50.578;17.878;2023-12-20T03:33:35;25.33;;;11.07;;
21251;SDS011;10784;50.578;17.878;2023-12-20T03:36:08;34.45;;;15.30;;
21251;SDS011;10784;50.578;17.878;2023-12-20T03:38:41;37.15;;;14.50;;
21251;SDS011;10784;50.578;17.878;2023-12-20T03:41:14;18.27;;;7.28;;
21251;SDS011;10784;50.578;17.878;2023-12-20T03:43:48;16.55;;;6.93;;
21251;SDS011;10784;50.578;17.878;2023-12-20T03:46:21;16.55;;;6.53;;
21251;SDS011;10784;50.578;17.878;2023-12-20T03:48:54;16.20;;;7.22;;
21251;SDS011;10784;50.578;17.878;2023-12-20T03:51:28;15.00;;;6.03;;
21251;SDS011;10784;50.578;17.878;2023-12-20T03:54:01;31.20;;;13.98;;
21251;SDS011;10784;50.578;17.878;2023-12-20T03:56:34;20.38;;;9.75;;
21251;SDS011;10784;50.578;17.878;2023-12-20T03:59:07;25.65;;;11.07;;
21251;SDS011;10784;50.578;17.878;2023-12-20T04:01:43;35.85;;;12.80;;
21251;SDS011;10784;50.578;17.878;2023-12-20T04:04:15;19.98;;;8.52;;
21251;SDS011;10784;50.578;17.878;2023-12-20T04:06:49;36.45;;;13.05;;
21251;SDS011;10784;50.578;17.878;2023-12-20T04:09:21;32.13;;;9.93;;
21251;SDS011;10784;50.578;17.878;2023-12-20T04:11:55;38.33;;;11.93;;
21251;SDS011;10784;50.578;17.878;2023-12-20T04:14:27;20.58;;;6.90;;
21251;SDS011;10784;50.578;17.878;2023-12-20T04:17:00;21.40;;;10.15;;
21251;SDS011;10784;50.578;17.878;2023-12-20T04:19:33;30.45;;;12.52;;
21251;SDS011;10784;50.578;17.878;2023-12-20T04:22:06;24.98;;;10.10;;
21251;SDS011;10784;50.578;17.878;2023-12-20T04:24:39;20.95;;;10.60;;
21251;SDS011;10784;50.578;17.878;2023-12-20T04:27:14;13.00;;;6.85;;
21251;SDS011;10784;50.578;17.878;2023-12-20T04:29:47;14.82;;;6.82;;
21251;SDS011;10784;50.578;17.878;2023-12-20T04:32:20;15.40;;;5.32;;
21251;SDS011;10784;50.578;17.878;2023-12-20T04:34:53;23.50;;;4.68;;
21251;SDS011;10784;50.578;17.878;2023-12-20T04:37:26;10.65;;;4.00;;
21251;SDS011;10784;50.578;17.878;2023-12-20T04:39:59;10.80;;;3.30;;
21251;SDS011;10784;50.578;17.878;2023-12-20T04:42:32;15.50;;;5.15;;
21251;SDS011;10784;50.578;17.878;2023-12-20T04:45:05;15.50;;;5.18;;
21251;SDS011;10784;50.578;17.878;2023-12-20T04:47:38;17.05;;;4.65;;
21251;SDS011;10784;50.578;17.878;2023-12-20T04:50:11;18.77;;;5.10;;
21251;SDS011;10784;50.578;17.878;2023-12-20T04:52:46;7.97;;;3.03;;
21251;SDS011;10784;50.578;17.878;2023-12-20T04:55:19;9.50;;;4.10;;
21251;SDS011;10784;50.578;17.878;2023-12-20T04:57:52;7.80;;;4.07;;
21251;SDS011;10784;50.578;17.878;2023-12-20T05:00:25;4.63;;;2.40;;
21251;SDS011;10784;50.578;17.878;2023-12-20T05:02:58;14.85;;;4.47;;
21251;SDS011;10784;50.578;17.878;2023-12-20T05:05:31;15.00;;;5.35;;
21251;SDS011;10784;50.578;17.878;2023-12-20T05:08:04;7.95;;;3.33;;
21251;SDS011;10784;50.578;17.878;2023-12-20T05:10:37;7.10;;;3.40;;
21251;SDS011;10784;50.578;17.878;2023-12-20T05:13:11;3.88;;;2.30;;
21251;SDS011;10784;50.578;17.878;2023-12-20T05:15:44;3.33;;;2.72;;
21251;SDS011;10784;50.578;17.878;2023-12-20T05:18:17;4.47;;;2.38;;
21251;SDS011;10784;50.578;17.878;2023-12-20T05:20:50;6.00;;;3.28;;
21251;SDS011;10784;50.578;17.878;2023-12-20T05:23:23;8.75;;;3.60;;
21251;SDS011;10784;50.578;17.878;2023-12-20T05:25:56;5.85;;;2.38;;
21251;SDS011;10784;50.578;17.878;2023-12-20T05:28:29;6.30;;;2.72;;
21251;SDS011;10784;50.578;17.878;2023-12-20T05:31:02;3.88;;;2.97;;
21251;SDS011;10784;50.578;17.878;2023-12-20T05:33:35;5.68;;;3.20;;
21251;SDS011;10784;50.578;17.878;2023-12-20T05:36:08;3.42;;;2.30;;
21251;SDS011;10784;50.578;17.878;2023-12-20T05:38:43;5.28;;;3.25;;
21251;SDS011;10784;50.578;17.878;2023-12-20T05:41:16;8.38;;;3.05;;
21251;SDS011;10784;50.578;17.878;2023-12-20T05:43:49;5.97;;;2.97;;
21251;SDS011;10784;50.578;17.878;2023-12-20T05:46:22;6.72;;;3.30;;
21251;SDS011;10784;50.578;17.878;2023-12-20T05:48:55;4.88;;;2.75;;
21251;SDS011;10784;50.578;17.878;2023-12-20T05:51:28;4.13;;;2.40;;
21251;SDS011;10784;50.578;17.878;2023-12-20T05:54:01;5.15;;;2.75;;
21251;SDS011;10784;50.578;17.878;2023-12-20T05:56:34;9.48;;;3.28;;
21251;SDS011;10784;50.578;17.878;2023-12-20T05:59:07;5.97;;;3.10;;
21251;SDS011;10784;50.578;17.878;2023-12-20T06:01:40;6.05;;;3.33;;
21251;SDS011;10784;50.578;17.878;2023-12-20T06:04:14;12.23;;;4.22;;
21251;SDS011;10784;50.578;17.878;2023-12-20T06:06:46;21.67;;;5.18;;
21251;SDS011;10784;50.578;17.878;2023-12-20T06:09:20;16.05;;;6.00;;
21251;SDS011;10784;50.578;17.878;2023-12-20T06:11:52;7.88;;;4.18;;
21251;SDS011;10784;50.578;17.878;2023-12-20T06:14:25;20.88;;;4.78;;
21251;SDS011;10784;50.578;17.878;2023-12-20T06:16:58;24.33;;;6.13;;
21251;SDS011;10784;50.578;17.878;2023-12-20T06:19:31;18.67;;;5.50;;
21251;SDS011;10784;50.578;17.878;2023-12-20T06:22:04;9.55;;;3.72;;
21251;SDS011;10784;50.578;17.878;2023-12-20T06:24:37;15.32;;;5.28;;
21251;SDS011;10784;50.578;17.878;2023-12-20T06:27:10;24.00;;;5.80;;
21251;SDS011;10784;50.578;17.878;2023-12-20T06:29:43;31.48;;;5.47;;
21251;SDS011;10784;50.578;17.878;2023-12-20T06:32:17;24.27;;;5.93;;
21251;SDS011;10784;50.578;17.878;2023-12-20T06:34:50;26.23;;;4.93;;
21251;SDS011;10784;50.578;17.878;2023-12-20T06:37:23;16.15;;;4.57;;
21251;SDS011;10784;50.578;17.878;2023-12-20T06:39:56;12.32;;;4.63;;
21251;SDS011;10784;50.578;17.878;2023-12-20T06:42:29;18.30;;;5.43;;
21251;SDS011;10784;50.578;17.878;2023-12-20T06:45:08;17.30;;;5.00;;
21251;SDS011;10784;50.578;17.878;2023-12-20T06:47:41;24.40;;;6.25;;
21251;SDS011;10784;50.578;17.878;2023-12-20T06:50:14;19.25;;;4.85;;
21251;SDS011;10784;50.578;17.878;2023-12-20T06:52:47;24.17;;;5.03;;
21251;SDS011;10784;50.578;17.878;2023-12-20T06:55:21;21.80;;;4.90;;
21251;SDS011;10784;50.578;17.878;2023-12-20T06:57:54;16.95;;;3.42;;
21251;SDS011;10784;50.578;17.878;2023-12-20T07:00:27;16.67;;;4.75;;
21251;SDS011;10784;50.578;17.878;2023-12-20T07:03:00;20.85;;;4.38;;
21251;SDS011;10784;50.578;17.878;2023-12-20T07:05:33;17.35;;;4.10;;
21251;SDS011;10784;50.578;17.878;2023-12-20T07:08:06;22.83;;;5.80;;
21251;SDS011;10784;50.578;17.878;2023-12-20T07:10:39;24.98;;;5.03;;
21251;SDS011;10784;50.578;17.878;2023-12-20T07:13:12;9.13;;;3.40;;
21251;SDS011;10784;50.578;17.878;2023-12-20T07:15:46;21.17;;;5.07;;
21251;SDS011;10784;50.578;17.878;2023-12-20T07:18:18;13.95;;;5.18;;
21251;SDS011;10784;50.578;17.878;2023-12-20T07:20:51;20.73;;;5.03;;
21251;SDS011;10784;50.578;17.878;2023-12-20T07:23:24;21.77;;;4.22;;
21251;SDS011;10784;50.578;17.878;2023-12-20T07:25:59;21.70;;;6.85;;
21251;SDS011;10784;50.578;17.878;2023-12-20T07:28:32;21.15;;;5.55;;
21251;SDS011;10784;50.578;17.878;2023-12-20T07:31:06;13.75;;;5.80;;
21251;SDS011;10784;50.578;17.878;2023-12-20T07:33:39;17.73;;;5.47;;
21251;SDS011;10784;50.578;17.878;2023-12-20T07:36:12;21.90;;;6.53;;
21251;SDS011;10784;50.578;17.878;2023-12-20T07:38:45;10.82;;;3.25;;
21251;SDS011;10784;50.578;17.878;2023-12-20T07:41:18;10.85;;;3.67;;
21251;SDS011;10784;50.578;17.878;2023-12-20T07:43:53;14.65;;;4.72;;
21251;SDS011;10784;50.578;17.878;2023-12-20T07:46:27;8.68;;;4.70;;
21251;SDS011;10784;50.578;17.878;2023-12-20T07:49:00;12.88;;;3.83;;
21251;SDS011;10784;50.578;17.878;2023-12-20T07:51:35;11.85;;;4.80;;
21251;SDS011;10784;50.578;17.878;2023-12-20T07:54:08;11.30;;;4.20;;
21251;SDS011;10784;50.578;17.878;2023-12-20T07:56:41;9.07;;;3.97;;
21251;SDS011;10784;50.578;17.878;2023-12-20T07:59:14;10.57;;;3.92;;
21251;SDS011;10784;50.578;17.878;2023-12-20T08:02:01;7.03;;;3.60;;
21251;SDS011;10784;50.578;17.878;2023-12-20T08:04:33;5.95;;;3.50;;
21251;SDS011;10784;50.578;17.878;2023-12-20T08:07:07;12.52;;;5.13;;
21251;SDS011;10784;50.578;17.878;2023-12-20T08:09:40;8.98;;;3.80;;
21251;SDS011;10784;50.578;17.878;2023-12-20T08:12:13;7.38;;;3.63;;
21251;SDS011;10784;50.578;17.878;2023-12-20T08:14:46;12.23;;;4.70;;
21251;SDS011;10784;50.578;17.878;2023-12-20T08:17:19;11.57;;;4.97;;
21251;SDS011;10784;50.578;17.878;2023-12-20T08:19:52;10.27;;;4.18;;
21251;SDS011;10784;50.578;17.878;2023-12-20T08:22:25;9.48;;;3.28;;
21251;SDS011;10784;50.578;17.878;2023-12-20T08:24:58;11.05;;;3.53;;
21251;SDS011;10784;50.578;17.878;2023-12-20T08:27:31;4.32;;;3.00;;
21251;SDS011;10784;50.578;17.878;2023-12-20T08:30:04;7.57;;;2.97;;
21251;SDS011;10784;50.578;17.878;2023-12-20T08:32:37;4.32;;;2.28;;
21251;SDS011;10784;50.578;17.878;2023-12-20T08:35:11;8.07;;;2.97;;
21251;SDS011;10784;50.578;17.878;2023-12-20T08:37:44;9.23;;;2.53;;
21251;SDS011;10784;50.578;17.878;2023-12-20T08:40:18;4.65;;;2.20;;
21251;SDS011;10784;50.578;17.878;2023-12-20T08:42:51;5.03;;;2.28;;
21251;SDS011;10784;50.578;17.878;2023-12-20T08:45:24;7.10;;;2.85;;
21251;SDS011;10784;50.578;17.878;2023-12-20T08:47:57;3.35;;;1.75;;
21251;SDS011;10784;50.578;17.878;2023-12-20T08:50:33;5.75;;;3.25;;
21251;SDS011;10784;50.578;17.878;2023-12-20T08:53:07;10.90;;;2.83;;
21251;SDS011;10784;50.578;17.878;2023-12-20T08:55:40;15.45;;;2.50;;
21251;SDS011;10784;50.578;17.878;2023-12-20T08:58:13;4.90;;;2.17;;
21251;SDS011;10784;50.578;17.878;2023-12-20T09:00:46;4.47;;;2.55;;
21251;SDS011;10784;50.578;17.878;2023-12-20T09:03:19;2.13;;;1.83;;
21251;SDS011;10784;50.578;17.878;2023-12-20T09:05:52;7.65;;;2.60;;
21251;SDS011;10784;50.578;17.878;2023-12-20T09:08:25;4.72;;;2.55;;
21251;SDS011;10784;50.578;17.878;2023-12-20T09:10:58;3.88;;;1.98;;
21251;SDS011;10784;50.578;17.878;2023-12-20T09:13:31;7.72;;;3.50;;
21251;SDS011;10784;50.578;17.878;2023-12-20T09:16:05;3.92;;;2.60;;
21251;SDS011;10784;50.578;17.878;2023-12-20T09:18:38;8.65;;;2.40;;
21251;SDS011;10784;50.578;17.878;2023-12-20T09:21:10;3.85;;;1.90;;
21251;SDS011;10784;50.578;17.878;2023-12-20T09:23:43;7.43;;;3.10;;
21251;SDS011;10784;50.578;17.878;2023-12-20T09:26:16;16.58;;;3.63;;
21251;SDS011;10784;50.578;17.878;2023-12-20T09:28:49;9.30;;;3.53;;
21251;SDS011;10784;50.578;17.878;2023-12-20T09:31:22;12.30;;;6.13;;
21251;SDS011;10784;50.578;17.878;2023-12-20T09:33:55;22.33;;;6.93;;
21251;SDS011;10784;50.578;17.878;2023-12-20T09:36:28;14.20;;;5.22;;
21251;SDS011;10784;50.578;17.878;2023-12-20T09:39:04;16.25;;;5.28;;
21251;SDS011;10784;50.578;17.878;2023-12-20T09:41:37;10.60;;;4.13;;
21251;SDS011;10784;50.578;17.878;2023-12-20T09:44:14;11.23;;;4.03;;
21251;SDS011;10784;50.578;17.878;2023-12-20T09:46:49;27.00;;;8.57;;
21251;SDS011;10784;50.578;17.878;2023-12-20T09:49:22;26.75;;;6.80;;
21251;SDS011;10784;50.578;17.878;2023-12-20T09:51:55;22.48;;;6.65;;
21251;SDS011;10784;50.578;17.878;2023-12-20T09:54:29;18.63;;;5.28;;
21251;SDS011;10784;50.578;17.878;2023-12-20T09:57:03;16.90;;;3.67;;
21251;SDS011;10784;50.578;17.878;2023-12-20T09:59:37;14.10;;;4.40;;
21251;SDS011;10784;50.578;17.878;2023-12-20T10:02:11;16.25;;;5.85;;
21251;SDS011;10784;50.578;17.878;2023-12-20T10:04:46;29.83;;;8.20;;
21251;SDS011;10784;50.578;17.878;2023-12-20T10:07:22;15.65;;;6.60;;
21251;SDS011;10784;50.578;17.878;2023-12-20T10:09:56;21.40;;;4.90;;
21251;SDS011;10784;50.578;17.878;2023-12-20T10:12:29;13.38;;;3.33;;
21251;SDS011;10784;50.578;17.878;2023-12-20T10:15:02;20.88;;;3.25;;
21251;SDS011;10784;50.578;17.878;2023-12-20T10:17:35;21.17;;;5.03;;
21251;SDS011;10784;50.578;17.878;2023-12-20T10:20:08;20.63;;;4.40;;
21251;SDS011;10784;50.578;17.878;2023-12-20T10:22:42;6.35;;;2.17;;
21251;SDS011;10784;50.578;17.878;2023-12-20T10:25:15;15.18;;;4.25;;
21251;SDS011;10784;50.578;17.878;2023-12-20T10:27:49;11.73;;;4.40;;
21251;SDS011;10784;50.578;17.878;2023-12-20T10:30:22;18.27;;;4.75;;
21251;SDS011;10784;50.578;17.878;2023-12-20T10:32:57;9.25;;;3.50;;
21251;SDS011;10784;50.578;17.878;2023-12-20T10:35:30;11.60;;;4.60;;
21251;SDS011;10784;50.578;17.878;2023-12-20T10:38:03;17.15;;;6.28;;
21251;SDS011;10784;50.578;17.878;2023-12-20T10:40:38;14.88;;;4.28;;
21251;SDS011;10784;50.578;17.878;2023-12-20T10:43:11;18.23;;;5.47;;
21251;SDS011;10784;50.578;17.878;2023-12-20T10:45:44;26.42;;;6.28;;
21251;SDS011;10784;50.578;17.878;2023-12-20T10:48:18;40.97;;;11.88;;
21251;SDS011;10784;50.578;17.878;2023-12-20T10:50:51;13.55;;;5.80;;
21251;SDS011;10784;50.578;17.878;2023-12-20T10:53:24;6.47;;;2.33;;
21251;SDS011;10784;50.578;17.878;2023-12-20T10:55:57;7.07;;;2.95;;
21251;SDS011;10784;50.578;17.878;2023-12-20T10:58:33;9.80;;;3.90;;
21251;SDS011;10784;50.578;17.878;2023-12-20T11:01:06;16.55;;;4.82;;
21251;SDS011;10784;50.578;17.878;2023-12-20T11:03:42;11.52;;;4.72;;
21251;SDS011;10784;50.578;17.878;2023-12-20T11:14:38;18.75;;;4.50;;
21251;SDS011;10784;50.578;17.878;2023-12-20T11:17:14;19.50;;;7.43;;
21251;SDS011;10784;50.578;17.878;2023-12-20T11:22:25;19.77;;;6.88;;
21251;SDS011;10784;50.578;17.878;2023-12-20T11:25:06;28.38;;;10.65;;
21251;SDS011;10784;50.578;17.878;2023-12-20T11:27:42;4.70;;;2.42;;
21251;SDS011;10784;50.578;17.878;2023-12-20T11:30:18;3.97;;;1.92;;
21251;SDS011;10784;50.578;17.878;2023-12-20T11:32:53;5.38;;;2.42;;
21251;SDS011;10784;50.578;17.878;2023-12-20T11:35:27;5.03;;;2.15;;
21251;SDS011;10784;50.578;17.878;2023-12-20T11:38:01;4.57;;;2.55;;
21251;SDS011;10784;50.578;17.878;2023-12-20T11:40:34;2.45;;;1.77;;
21251;SDS011;10784;50.578;17.878;2023-12-20T11:43:07;3.63;;;2.20;;
21251;SDS011;10784;50.578;17.878;2023-12-20T11:45:48;3.90;;;1.83;;
21251;SDS011;10784;50.578;17.878;2023-12-20T11:48:22;4.05;;;1.55;;
21251;SDS011;10784;50.578;17.878;2023-12-20T11:50:55;2.20;;;2.00;;
21251;SDS011;10784;50.578;17.878;2023-12-20T11:53:28;7.03;;;2.38;;
21251;SDS011;10784;50.578;17.878;2023-12-20T11:56:01;3.65;;;1.75;;
21251;SDS011;10784;50.578;17.878;2023-12-20T11:58:36;4.05;;;2.40;;
21251;SDS011;10784;50.578;17.878;2023-12-20T12:01:09;4.20;;;1.88;;
21251;SDS011;10784;50.578;17.878;2023-12-20T12:03:43;3.90;;;2.65;;
21251;SDS011;10784;50.578;17.878;2023-12-20T12:06:16;7.22;;;2.20;;
21251;SDS011;10784;50.578;17.878;2023-12-20T12:08:50;6.45;;;3.25;;
21251;SDS011;10784;50.578;17.878;2023-12-20T12:11:23;5.75;;;2.22;;
21251;SDS011;10784;50.578;17.878;2023-12-20T12:13:56;5.40;;;1.80;;
21251;SDS011;10784;50.578;17.878;2023-12-20T12:16:28;3.55;;;1.88;;
21251;SDS011;10784;50.578;17.878;2023-12-20T12:19:02;4.53;;;2.75;;
21251;SDS011;10784;50.578;17.878;2023-12-20T12:21:36;4.63;;;2.60;;
21251;SDS011;10784;50.578;17.878;2023-12-20T12:24:10;6.25;;;2.67;;
21251;SDS011;10784;50.578;17.878;2023-12-20T12:26:43;6.22;;;2.63;;
21251;SDS011;10784;50.578;17.878;2023-12-20T12:29:22;7.90;;;2.33;;
21251;SDS011;10784;50.578;17.878;2023-12-20T12:31:56;5.00;;;2.28;;
21251;SDS011;10784;50.578;17.878;2023-12-20T12:34:30;6.93;;;2.45;;
21251;SDS011;10784;50.578;17.878;2023-12-20T12:37:03;10.75;;;3.20;;
21251;SDS011;10784;50.578;17.878;2023-12-20T12:39:36;9.15;;;4.38;;
21251;SDS011;10784;50.578;17.878;2023-12-20T12:42:09;6.43;;;3.00;;
21251;SDS011;10784;50.578;17.878;2023-12-20T12:44:43;20.48;;;4.97;;
21251;SDS011;10784;50.578;17.878;2023-12-20T12:47:15;9.48;;;3.00;;
21251;SDS011;10784;50.578;17.878;2023-12-20T12:49:49;6.03;;;2.92;;
21251;SDS011;10784;50.578;17.878;2023-12-20T12:52:23;6.47;;;2.55;;
21251;SDS011;10784;50.578;17.878;2023-12-20T12:54:56;7.95;;;3.70;;
21251;SDS011;10784;50.578;17.878;2023-12-20T12:57:29;8.55;;;3.00;;
21251;SDS011;10784;50.578;17.878;2023-12-20T13:00:02;7.47;;;2.75;;
21251;SDS011;10784;50.578;17.878;2023-12-20T13:02:35;8.32;;;3.63;;
21251;SDS011;10784;50.578;17.878;2023-12-20T13:05:10;4.57;;;2.45;;
21251;SDS011;10784;50.578;17.878;2023-12-20T13:07:43;8.65;;;2.53;;
21251;SDS011;10784;50.578;17.878;2023-12-20T13:10:18;9.20;;;3.10;;
21251;SDS011;10784;50.578;17.878;2023-12-20T13:12:51;5.75;;;2.17;;
21251;SDS011;10784;50.578;17.878;2023-12-20T13:15:25;6.78;;;2.75;;
21251;SDS011;10784;50.578;17.878;2023-12-20T13:17:57;3.95;;;1.90;;
21251;SDS011;10784;50.578;17.878;2023-12-20T13:20:30;8.30;;;3.35;;
21251;SDS011;10784;50.578;17.878;2023-12-20T13:23:03;6.57;;;2.60;;
21251;SDS011;10784;50.578;17.878;2023-12-20T13:25:36;9.82;;;3.55;;
21251;SDS011;10784;50.578;17.878;2023-12-20T13:28:09;8.55;;;3.30;;
21251;SDS011;10784;50.578;17.878;2023-12-20T13:30:43;5.45;;;2.83;;
21251;SDS011;10784;50.578;17.878;2023-12-20T13:33:15;3.70;;;2.30;;
21251;SDS011;10784;50.578;17.878;2023-12-20T13:35:49;5.25;;;2.60;;
21251;SDS011;10784;50.578;17.878;2023-12-20T13:38:22;7.95;;;2.10;;
21251;SDS011;10784;50.578;17.878;2023-12-20T13:40:55;4.82;;;2.90;;
21251;SDS011;10784;50.578;17.878;2023-12-20T13:43:27;6.90;;;2.40;;
21251;SDS011;10784;50.578;17.878;2023-12-20T13:46:01;1.73;;;1.60;;
21251;SDS011;10784;50.578;17.878;2023-12-20T13:48:34;3.88;;;2.10;;
21251;SDS011;10784;50.578;17.878;2023-12-20T13:51:07;1.77;;;1.10;;
21251;SDS011;10784;50.578;17.878;2023-12-20T13:53:40;5.30;;;1.98;;
21251;SDS011;10784;50.578;17.878;2023-12-20T13:56:13;5.25;;;1.85;;
21251;SDS011;10784;50.578;17.878;2023-12-20T13:58:46;3.30;;;2.10;;
21251;SDS011;10784;50.578;17.878;2023-12-20T14:01:19;4.22;;;2.17;;
21251;SDS011;10784;50.578;17.878;2023-12-20T14:03:52;2.47;;;1.90;;
21251;SDS011;10784;50.578;17.878;2023-12-20T14:06:25;8.15;;;1.75;;
21251;SDS011;10784;50.578;17.878;2023-12-20T14:08:58;2.75;;;1.77;;
21251;SDS011;10784;50.578;17.878;2023-12-20T14:11:34;5.35;;;1.73;;
21251;SDS011;10784;50.578;17.878;2023-12-20T14:14:07;5.05;;;2.05;;
21251;SDS011;10784;50.578;17.878;2023-12-20T14:16:40;3.83;;;1.75;;
21251;SDS011;10784;50.578;17.878;2023-12-20T14:19:16;1.65;;;1.55;;
21251;SDS011;10784;50.578;17.878;2023-12-20T14:21:50;1.80;;;1.42;;
21251;SDS011;10784;50.578;17.878;2023-12-20T14:24:23;1.95;;;1.50;;
21251;SDS011;10784;50.578;17.878;2023-12-20T14:26:57;2.28;;;1.65;;
21251;SDS011;10784;50.578;17.878;2023-12-20T14:29:31;4.15;;;2.08;;
21251;SDS011;10784;50.578;17.878;2023-12-20T14:32:04;7.00;;;2.25;;
21251;SDS011;10784;50.578;17.878;2023-12-20T14:34:38;2.97;;;1.80;;
21251;SDS011;10784;50.578;17.878;2023-12-20T14:37:11;3.83;;;1.58;;
21251;SDS011;10784;50.578;17.878;2023-12-20T14:39:44;4.30;;;1.52;;
21251;SDS011;10784;50.578;17.878;2023-12-20T14:42:17;4.18;;;1.65;;
21251;SDS011;10784;50.578;17.878;2023-12-20T14:44:50;22.52;;;2.40;;
21251;SDS011;10784;50.578;17.878;2023-12-20T14:47:24;2.58;;;1.42;;
21251;SDS011;10784;50.578;17.878;2023-12-20T14:49:57;6.38;;;2.30;;
21251;SDS011;10784;50.578;17.878;2023-12-20T14:52:31;2.38;;;1.95;;
21251;SDS011;10784;50.578;17.878;2023-12-20T14:55:04;5.50;;;2.55;;
21251;SDS011;10784;50.578;17.878;2023-12-20T14:57:37;4.00;;;2.30;;
21251;SDS011;10784;50.578;17.878;2023-12-20T15:00:11;4.38;;;1.65;;
21251;SDS011;10784;50.578;17.878;2023-12-20T15:02:49;7.20;;;2.90;;
21251;SDS011;10784;50.578;17.878;2023-12-20T15:05:22;7.50;;;3.40;;
21251;SDS011;10784;50.578;17.878;2023-12-20T15:07:55;10.68;;;4.28;;
21251;SDS011;10784;50.578;17.878;2023-12-20T15:10:28;2.92;;;2.08;;
21251;SDS011;10784;50.578;17.878;2023-12-20T15:13:01;7.75;;;2.88;;
21251;SDS011;10784;50.578;17.878;2023-12-20T15:15:35;6.07;;;3.05;;